createdAt,value
2018-12-16T00:00:38.922Z,-0.17
2018-12-16T00:01:38.896Z,-0.2
2018-12-16T00:02:38.634Z,-0.21
2018-12-16T00:03:38.372Z,-0.23
2018-12-16T00:04:38.612Z,-0.25
2018-12-16T00:05:38.586Z,-0.21
2018-12-16T00:06:38.834Z,-0.28
2018-12-16T00:07:38.577Z,-0.31
2018-12-16T00:08:38.547Z,-0.28
2018-12-16T00:09:38.534Z,-0.26
2018-12-16T00:10:38.770Z,-0.26
2018-12-16T00:11:38.768Z,-0.23
2018-12-16T00:12:38.497Z,-0.35
2018-12-16T00:13:38.501Z,-0.38
2018-12-16T00:14:38.256Z,-0.28
2018-12-16T00:15:38.464Z,-0.25
2018-12-16T00:16:38.458Z,-0.23
2018-12-16T00:17:38.437Z,-0.18
2018-12-16T00:18:38.666Z,-0.31
2018-12-16T00:19:38.411Z,-0.26
2018-12-16T00:20:38.402Z,-0.14
2018-12-16T00:21:38.386Z,-0.13
2018-12-16T00:22:38.639Z,-0.17
2018-12-16T00:23:38.347Z,-0.23
2018-12-16T00:24:38.349Z,-0.15
2018-12-16T00:25:38.082Z,-0.13
2018-12-16T00:26:38.569Z,-0.06
2018-12-16T00:27:38.296Z,-0.1
2018-12-16T00:28:38.290Z,-0.13
2018-12-16T00:29:38.286Z,-0.07
2018-12-16T00:30:38.262Z,-0.06
2018-12-16T00:31:38.001Z,-0.08
2018-12-16T00:32:38.241Z,-0.15
2018-12-16T00:33:37.978Z,-0.07
2018-12-16T00:34:37.985Z,-0.1
2018-12-16T00:35:38.197Z,-0.21
2018-12-16T00:36:38.439Z,-0.18
2018-12-16T00:37:38.421Z,-0.15
2018-12-16T00:38:38.415Z,-0.17
2018-12-16T00:39:38.398Z,-0.17
2018-12-16T00:40:38.401Z,-0.15
2018-12-16T00:41:38.116Z,-0.25
2018-12-16T00:42:38.372Z,-0.14
2018-12-16T00:43:38.335Z,-0.14
2018-12-16T00:44:38.328Z,-0.08
2018-12-16T00:45:37.840Z,-0.07
2018-12-16T00:46:38.048Z,-0.02
2018-12-16T00:47:38.053Z,-0.07
2018-12-16T00:48:38.277Z,-0.1
2018-12-16T00:49:38.334Z,-0.03
2018-12-16T00:50:38.015Z,-0.07
2018-12-16T00:51:38.031Z,-0.03
2018-12-16T00:52:41.080Z,-0.07
2018-12-16T00:53:37.994Z,-0.08
2018-12-16T00:54:37.959Z,-0.25
2018-12-16T00:55:38.209Z,-0.28
2018-12-16T00:56:37.931Z,-0.29
2018-12-16T00:57:37.928Z,-0.28
2018-12-16T00:58:37.930Z,-0.35
2018-12-16T00:59:38.145Z,-0.32
2018-12-16T01:00:37.892Z,-0.21
2018-12-16T01:01:38.116Z,-0.28
2018-12-16T01:02:37.855Z,-0.17
2018-12-16T01:03:37.843Z,-0.26
2018-12-16T01:04:40.432Z,-0.11
2018-12-16T01:05:38.076Z,-0.1
2018-12-16T01:06:38.045Z,-0.11
2018-12-16T01:07:37.799Z,-0.08
2018-12-16T01:08:37.778Z,-0.11
2018-12-16T01:09:37.772Z,-0.06
2018-12-16T01:10:38.007Z,-0.07
2018-12-16T01:11:37.742Z,-0.07
2018-12-16T01:12:37.725Z,-0.03
2018-12-16T01:13:37.726Z,-0.07
2018-12-16T01:14:37.452Z,-0.07
2018-12-16T01:15:37.942Z,-0.06
2018-12-16T01:16:37.936Z,-0.1
2018-12-16T01:17:37.422Z,-0.1
2018-12-16T01:18:37.894Z,0
2018-12-16T01:19:37.884Z,-0.02
2018-12-16T01:20:37.623Z,-0.02
2018-12-16T01:21:37.686Z,0
2018-12-16T01:22:43.338Z,0.01
2018-12-16T01:23:37.334Z,-0.03
2018-12-16T01:24:37.813Z,-0.07
2018-12-16T01:25:37.564Z,-0.07
2018-12-16T01:26:37.540Z,-0.06
2018-12-16T01:27:37.525Z,-0.08
2018-12-16T01:28:37.514Z,-0.02
2018-12-16T01:29:37.750Z,0.1
2018-12-16T01:30:37.773Z,0
2018-12-16T01:31:37.479Z,0.07
2018-12-16T01:32:37.722Z,-0.03
2018-12-16T01:33:37.703Z,0.05
2018-12-16T01:34:37.451Z,-0.02
2018-12-16T01:35:37.680Z,0.12
2018-12-16T01:36:37.677Z,0.15
2018-12-16T01:37:37.165Z,0.12
2018-12-16T01:38:37.402Z,0.18
2018-12-16T01:39:37.644Z,0.16
2018-12-16T01:40:37.367Z,0.11
2018-12-16T01:41:37.108Z,0.11
2018-12-16T01:42:37.592Z,0.15
2018-12-16T01:43:37.323Z,0.21
2018-12-16T01:44:37.563Z,0.15
2018-12-16T01:45:37.556Z,0.19
2018-12-16T01:46:37.542Z,0.12
2018-12-16T01:47:37.277Z,0.18
2018-12-16T01:48:37.512Z,0.12
2018-12-16T01:49:37.273Z,0.07
2018-12-16T01:50:37.488Z,0.18
2018-12-16T01:51:37.227Z,0.16
2018-12-16T01:52:37.464Z,0.12
2018-12-16T01:53:37.196Z,0.12
2018-12-16T01:54:36.944Z,0.21
2018-12-16T01:55:37.422Z,0.28
2018-12-16T01:56:37.412Z,0.16
2018-12-16T01:57:36.946Z,0.16
2018-12-16T01:58:37.147Z,0.19
2018-12-16T01:59:37.369Z,0.23
2018-12-16T02:00:37.110Z,0.16
2018-12-16T02:01:37.352Z,0.19
2018-12-16T02:02:37.114Z,0.15
2018-12-16T02:03:37.073Z,0.23
2018-12-16T02:04:37.308Z,0.25
2018-12-16T02:05:37.046Z,0.23
2018-12-16T02:06:37.292Z,0.19
2018-12-16T02:07:37.022Z,0.23
2018-12-16T02:08:37.009Z,0.34
2018-12-16T02:09:37.247Z,0.28
2018-12-16T02:10:37.240Z,0.19
2018-12-16T02:11:36.983Z,0.21
2018-12-16T02:12:36.990Z,0.19
2018-12-16T02:13:36.696Z,0.12
2018-12-16T02:14:36.934Z,0.1
2018-12-16T02:15:36.936Z,0.11
2018-12-16T02:16:36.906Z,0.12
2018-12-16T02:17:37.156Z,0.1
2018-12-16T02:18:37.158Z,0.1
2018-12-16T02:19:36.873Z,0.12
2018-12-16T02:20:37.108Z,0.07
2018-12-16T02:21:36.882Z,0.08
2018-12-16T02:22:36.835Z,0.04
2018-12-16T02:23:36.589Z,0.1
2018-12-16T02:24:36.563Z,0.15
2018-12-16T02:25:36.795Z,0.15
2018-12-16T02:26:36.785Z,0.15
2018-12-16T02:27:37.026Z,0.21
2018-12-16T02:28:36.758Z,0.25
2018-12-16T02:29:36.506Z,0.21
2018-12-16T02:30:37.061Z,0.18
2018-12-16T02:31:37.030Z,0.26
2018-12-16T02:32:36.955Z,0.19
2018-12-16T02:33:36.443Z,0.22
2018-12-16T02:34:36.934Z,0.23
2018-12-16T02:35:36.923Z,0.19
2018-12-16T02:36:36.659Z,0.28
2018-12-16T02:37:36.906Z,0.23
2018-12-16T02:38:36.887Z,0.31
2018-12-16T02:39:36.639Z,0.29
2018-12-16T02:40:36.889Z,0.19
2018-12-16T02:41:36.857Z,0.37
2018-12-16T02:42:36.585Z,0.25
2018-12-16T02:43:36.572Z,0.39
2018-12-16T02:45:04.105Z,0.37
2018-12-16T02:45:36.803Z,0.52
2018-12-16T02:46:36.781Z,0.43
2018-12-16T02:47:36.763Z,0.37
2018-12-16T02:48:36.288Z,0.41
2018-12-16T02:49:36.507Z,0.28
2018-12-16T02:50:36.500Z,0.31
2018-12-16T02:51:36.222Z,0.34
2018-12-16T02:52:36.717Z,0.34
2018-12-16T02:53:36.453Z,0.44
2018-12-16T02:54:36.709Z,0.32
2018-12-16T02:55:36.673Z,0.4
2018-12-16T02:56:36.674Z,0.36
2018-12-16T02:57:36.654Z,0.32
2018-12-16T02:58:36.412Z,0.37
2018-12-16T02:59:36.371Z,0.4
2018-12-16T03:00:36.666Z,0.4
2018-12-16T03:01:36.354Z,0.43
2018-12-16T03:02:36.333Z,0.43
2018-12-16T03:03:36.337Z,0.49
2018-12-16T03:04:36.561Z,0.43
2018-12-16T03:05:36.557Z,0.43
2018-12-16T03:06:36.554Z,0.46
2018-12-16T03:07:36.525Z,0.47
2018-12-16T03:08:36.269Z,0.59
2018-12-16T03:09:36.264Z,0.6
2018-12-16T03:10:36.227Z,0.58
2018-12-16T03:11:36.478Z,0.49
2018-12-16T03:12:36.204Z,0.55
2018-12-16T03:13:36.485Z,0.52
2018-12-16T03:14:36.195Z,0.52
2018-12-16T03:15:36.417Z,0.47
2018-12-16T03:16:36.408Z,0.55
2018-12-16T03:17:36.156Z,0.52
2018-12-16T03:18:36.377Z,0.49
2018-12-16T03:21:07.150Z,0.56
2018-12-16T03:22:06.887Z,0.59
2018-12-16T03:23:14.574Z,0.6
2018-12-16T03:24:07.117Z,0.52
2018-12-16T03:25:06.866Z,0.58
2018-12-16T03:26:07.117Z,0.6
2018-12-16T03:27:06.855Z,0.56
2018-12-16T03:28:07.051Z,0.58
2018-12-16T03:29:07.044Z,0.63
2018-12-16T03:30:07.064Z,0.65
2018-12-16T03:31:06.801Z,0.59
2018-12-16T03:32:07.048Z,0.69
2018-12-16T03:33:07.061Z,0.62
2018-12-16T03:34:06.811Z,0.6
2018-12-16T03:35:06.989Z,0.56
2018-12-16T03:36:18.425Z,0.66
2018-12-16T03:37:18.178Z,0.63
2018-12-16T03:38:06.737Z,0.6
2018-12-16T03:39:06.733Z,0.68
2018-12-16T03:40:12.449Z,0.68
2018-12-16T03:41:06.651Z,0.8
2018-12-16T03:42:06.880Z,0.77
2018-12-16T03:43:06.891Z,0.81
2018-12-16T03:44:06.611Z,0.78
2018-12-16T03:45:06.913Z,0.87
2018-12-16T03:46:06.845Z,0.88
2018-12-16T03:47:06.628Z,0.88
2018-12-16T03:48:06.958Z,0.87
2018-12-16T03:49:06.819Z,0.86
2018-12-16T03:50:06.308Z,0.81
2018-12-16T03:51:06.591Z,0.91
2018-12-16T03:52:06.505Z,0.87
2018-12-16T03:53:06.869Z,0.84
2018-12-16T03:54:06.487Z,0.91
2018-12-16T03:55:06.479Z,0.87
2018-12-16T03:56:06.501Z,0.77
2018-12-16T03:57:06.460Z,0.77
2018-12-16T03:58:06.809Z,0.8
2018-12-16T03:59:06.440Z,0.74
2018-12-16T04:00:06.419Z,0.74
2018-12-16T04:01:06.647Z,0.69
2018-12-16T04:02:06.658Z,0.63
2018-12-16T04:03:06.129Z,0.73
2018-12-16T04:04:07.424Z,0.78
2018-12-16T04:05:06.599Z,0.73
2018-12-16T04:06:06.390Z,0.76
2018-12-16T04:07:06.407Z,0.73
2018-12-16T04:08:06.086Z,0.69
2018-12-16T04:09:06.540Z,0.74
2018-12-16T04:10:06.302Z,0.76
2018-12-16T04:11:06.029Z,0.7
2018-12-16T04:12:06.524Z,0.78
2018-12-16T04:13:06.518Z,0.76
2018-12-16T04:14:06.239Z,0.84
2018-12-16T04:15:06.256Z,0.81
2018-12-16T04:16:06.518Z,0.86
2018-12-16T04:17:06.199Z,0.86
2018-12-16T04:18:06.467Z,0.98
2018-12-16T04:19:06.443Z,0.99
2018-12-16T04:20:06.417Z,1.04
2018-12-16T04:21:06.456Z,1.02
2018-12-16T04:22:06.402Z,0.99
2018-12-16T04:23:06.386Z,1.08
2018-12-16T04:24:06.168Z,1.12
2018-12-16T04:25:06.105Z,1.1
2018-12-16T04:26:06.439Z,1.06
2018-12-16T04:27:06.076Z,1.05
2018-12-16T04:28:06.315Z,1.05
2018-12-16T04:29:06.084Z,1.08
2018-12-16T04:30:06.295Z,1.04
2018-12-16T04:31:06.360Z,1.01
2018-12-16T04:32:06.283Z,0.98
2018-12-16T04:33:06.243Z,0.95
2018-12-16T04:34:06.294Z,1.04
2018-12-16T04:35:06.261Z,1.02
2018-12-16T04:36:06.302Z,0.99
2018-12-16T04:37:06.201Z,0.84
2018-12-16T04:38:06.220Z,0.96
2018-12-16T04:39:05.942Z,0.77
2018-12-16T04:40:05.943Z,0.73
2018-12-16T04:41:06.169Z,0.68
2018-12-16T04:42:06.138Z,0.66
2018-12-16T04:43:06.134Z,0.6
2018-12-16T04:44:07.232Z,0.56
2018-12-16T04:45:06.108Z,0.49
2018-12-16T04:46:06.155Z,0.52
2018-12-16T04:47:05.575Z,0.5
2018-12-16T04:48:05.844Z,0.41
2018-12-16T04:49:05.841Z,0.46
2018-12-16T04:50:06.057Z,0.39
2018-12-16T04:51:06.080Z,0.41
2018-12-16T04:52:05.771Z,0.44
2018-12-16T04:53:06.036Z,0.32
2018-12-16T04:54:06.008Z,0.34
2018-12-16T04:55:05.796Z,0.32
2018-12-16T04:56:06.011Z,0.36
2018-12-16T04:57:05.958Z,0.31
2018-12-16T04:58:05.691Z,0.36
2018-12-16T04:59:05.663Z,0.26
2018-12-16T05:00:05.646Z,0.28
2018-12-16T05:01:05.945Z,0.29
2018-12-16T05:02:05.641Z,0.31
2018-12-16T05:03:05.890Z,0.32
2018-12-16T05:04:05.358Z,0.26
2018-12-16T05:05:05.601Z,0.29
2018-12-16T05:06:22.589Z,0.31
2018-12-16T05:07:06.149Z,0.32
2018-12-16T05:08:05.308Z,0.19
2018-12-16T05:09:22.500Z,0.25
2018-12-16T05:10:05.763Z,0.26
2018-12-16T05:11:05.702Z,0.23
2018-12-16T05:12:05.507Z,0.12
2018-12-16T05:13:05.261Z,0.15
2018-12-16T05:14:05.221Z,0.08
2018-12-16T05:15:05.223Z,0.01
2018-12-16T05:16:05.699Z,0.03
2018-12-16T05:17:05.720Z,-0.11
2018-12-16T05:18:05.679Z,-0.1
2018-12-16T05:19:05.657Z,-0.21
2018-12-16T05:20:05.637Z,-0.26
2018-12-16T05:21:05.626Z,-0.29
2018-12-16T05:22:06.765Z,-0.31
2018-12-16T05:23:05.605Z,-0.34
2018-12-16T05:24:05.586Z,-0.17
2018-12-16T05:25:05.331Z,-0.23
2018-12-16T05:26:05.318Z,-0.25
2018-12-16T05:27:05.315Z,-0.2
2018-12-16T05:28:05.558Z,-0.18
2018-12-16T05:29:05.548Z,-0.21
2018-12-16T05:30:05.265Z,-0.31
2018-12-16T05:31:05.269Z,-0.23
2018-12-16T05:32:05.278Z,-0.28
2018-12-16T05:33:05.222Z,-0.21
2018-12-16T05:34:06.686Z,-0.38
2018-12-16T05:35:05.205Z,-0.32
2018-12-16T05:36:05.182Z,-0.25
2018-12-16T05:37:05.226Z,-0.28
2018-12-16T05:38:05.138Z,-0.1
2018-12-16T05:39:05.145Z,-0.1
2018-12-16T05:40:05.369Z,-0.06
2018-12-16T05:41:04.863Z,0
2018-12-16T05:42:05.146Z,0
2018-12-16T05:43:05.347Z,0.15
2018-12-16T05:44:05.068Z,0.11
2018-12-16T05:45:04.818Z,0.12
2018-12-16T05:46:05.037Z,0.18
2018-12-16T05:47:05.324Z,0.15
2018-12-16T05:48:05.259Z,0.12
2018-12-16T05:49:05.247Z,0.18
2018-12-16T05:50:05.237Z,0.21
2018-12-16T05:51:05.225Z,0.15
2018-12-16T05:52:05.024Z,0.16
2018-12-16T05:53:04.940Z,0.01
2018-12-16T05:54:04.689Z,0.1
2018-12-16T05:55:05.192Z,0.01
2018-12-16T05:56:05.146Z,0
2018-12-16T05:57:04.939Z,0.08
2018-12-16T05:58:05.216Z,0.12
2018-12-16T05:59:04.911Z,0.12
2018-12-16T06:00:05.127Z,0.16
2018-12-16T06:01:05.087Z,0.22
2018-12-16T06:02:05.199Z,0.19
2018-12-16T06:03:05.072Z,0.12
2018-12-16T06:04:05.042Z,0.01
2018-12-16T06:05:05.054Z,0
2018-12-16T06:06:04.795Z,0.07
2018-12-16T06:07:04.828Z,-0.06
2018-12-16T06:08:05.675Z,-0.06
2018-12-16T06:09:04.980Z,0.01
2018-12-16T06:10:04.966Z,0.07
2018-12-16T06:11:04.473Z,0
2018-12-16T06:12:04.950Z,0.03
2018-12-16T06:13:04.693Z,0.03
2018-12-16T06:14:04.413Z,-0.03
2018-12-16T06:15:04.896Z,0.18
2018-12-16T06:16:04.641Z,0.08
2018-12-16T06:17:04.625Z,0.19
2018-12-16T06:18:04.858Z,0.16
2018-12-16T06:19:04.850Z,0.22
2018-12-16T06:20:04.354Z,0.18
2018-12-16T06:21:04.828Z,0.26
2018-12-16T06:22:04.317Z,0.26
2018-12-16T06:23:04.555Z,0.32
2018-12-16T06:24:04.786Z,0.31
2018-12-16T06:25:04.788Z,0.19
2018-12-16T06:26:04.768Z,0.22
2018-12-16T06:27:04.758Z,0.18
2018-12-16T06:28:04.243Z,0.21
2018-12-16T06:29:04.479Z,0.15
2018-12-16T06:30:04.748Z,0.19
2018-12-16T06:31:04.693Z,0.15
2018-12-16T06:32:04.682Z,0.19
2018-12-16T06:33:04.173Z,0.15
2018-12-16T06:34:04.680Z,0.16
2018-12-16T06:35:04.651Z,0.21
2018-12-16T06:36:04.404Z,0.23
2018-12-16T06:37:04.633Z,0.19
2018-12-16T06:38:04.353Z,0.15
2018-12-16T06:39:04.350Z,0.11
2018-12-16T06:40:04.346Z,0.15
2018-12-16T06:41:04.343Z,0.1
2018-12-16T06:42:04.322Z,0.18
2018-12-16T06:43:04.298Z,0.12
2018-12-16T06:44:04.542Z,0.11
2018-12-16T06:45:04.283Z,0.1
2018-12-16T06:46:04.512Z,0.05
2018-12-16T06:47:04.516Z,0.07
2018-12-16T06:48:04.240Z,0
2018-12-16T06:49:04.474Z,-0.03
2018-12-16T06:50:04.212Z,0.05
2018-12-16T06:51:04.218Z,0.01
2018-12-16T06:52:04.439Z,-0.03
2018-12-16T06:53:04.429Z,-0.03
2018-12-16T06:54:07.459Z,0.12
2018-12-16T06:55:04.151Z,0.04
2018-12-16T06:56:08.950Z,0.12
2018-12-16T06:57:04.114Z,0.1
2018-12-16T06:58:04.354Z,0.18
2018-12-16T06:59:04.352Z,0.21
2018-12-16T07:00:04.376Z,0.19
2018-12-16T07:01:04.067Z,0.29
2018-12-16T07:02:03.815Z,0.32
2018-12-16T07:03:04.349Z,0.36
2018-12-16T07:04:04.305Z,0.32
2018-12-16T07:05:04.286Z,0.37
2018-12-16T07:06:04.280Z,0.44
2018-12-16T07:07:04.254Z,0.49
2018-12-16T07:08:04.324Z,0.47
2018-12-16T07:09:03.988Z,0.43
2018-12-16T07:10:03.966Z,0.55
2018-12-16T07:11:04.214Z,0.6
2018-12-16T07:12:04.233Z,0.6
2018-12-16T07:13:04.213Z,0.66
2018-12-16T07:14:03.936Z,0.58
2018-12-16T07:15:03.907Z,0.76
2018-12-16T07:16:04.189Z,0.66
2018-12-16T07:17:04.180Z,0.76
2018-12-16T07:18:03.650Z,0.6
2018-12-16T07:19:04.202Z,0.59
2018-12-16T07:20:03.853Z,0.6
2018-12-16T07:21:04.074Z,0.69
2018-12-16T07:22:03.572Z,0.7
2018-12-16T07:23:04.107Z,0.6
2018-12-16T07:24:09.110Z,0.59
2018-12-16T07:25:03.845Z,0.68
2018-12-16T07:26:03.834Z,0.62
2018-12-16T07:27:03.519Z,0.6
2018-12-16T07:28:03.799Z,0.69
2018-12-16T07:29:03.748Z,0.68
2018-12-16T07:30:03.734Z,0.7
2018-12-16T07:31:04.006Z,0.66
2018-12-16T07:32:03.703Z,0.66
2018-12-16T07:33:04.005Z,0.81
2018-12-16T07:34:03.687Z,0.77
2018-12-16T07:35:03.447Z,0.8
2018-12-16T07:36:03.667Z,0.8
2018-12-16T07:37:03.647Z,0.83
2018-12-16T07:38:03.751Z,0.83
2018-12-16T07:39:03.858Z,0.88
2018-12-16T07:40:03.618Z,0.86
2018-12-16T07:41:03.655Z,0.86
2018-12-16T07:42:03.844Z,0.84
2018-12-16T07:43:03.865Z,0.88
2018-12-16T07:44:03.902Z,0.96
2018-12-16T07:45:03.873Z,0.95
2018-12-16T07:46:03.550Z,0.96
2018-12-16T07:47:03.572Z,0.99
2018-12-16T07:48:03.570Z,0.96
2018-12-16T07:49:03.561Z,0.98
2018-12-16T07:50:03.468Z,0.91
2018-12-16T07:51:03.576Z,0.84
2018-12-16T07:52:03.760Z,0.87
2018-12-16T07:53:03.528Z,0.91
2018-12-16T07:54:03.517Z,0.86
2018-12-16T07:55:03.417Z,0.88
2018-12-16T07:56:03.690Z,0.94
2018-12-16T07:57:03.485Z,0.96
2018-12-16T07:58:03.693Z,0.99
2018-12-16T07:59:03.659Z,1.05
2018-12-16T08:00:03.107Z,1.1
2018-12-16T08:01:03.339Z,1.16
2018-12-16T08:02:03.359Z,1.17
2018-12-16T08:03:03.334Z,1.16
2018-12-16T08:04:03.558Z,1.22
2018-12-16T08:05:03.549Z,1.22
2018-12-16T08:06:03.323Z,1.22
2018-12-16T08:07:03.018Z,1.24
2018-12-16T08:08:03.576Z,1.37
2018-12-16T08:09:03.249Z,1.38
2018-12-16T08:10:03.250Z,1.38
2018-12-16T08:11:03.466Z,1.37
2018-12-16T08:12:03.475Z,1.42
2018-12-16T08:13:03.196Z,1.45
2018-12-16T08:14:03.447Z,1.52
2018-12-16T08:15:03.423Z,1.49
2018-12-16T08:16:03.411Z,1.45
2018-12-16T08:17:03.152Z,1.45
2018-12-16T08:18:03.395Z,1.42
2018-12-16T08:19:09.290Z,1.55
2018-12-16T08:20:03.194Z,1.42
2018-12-16T08:21:03.340Z,1.48
2018-12-16T08:22:03.106Z,1.41
2018-12-16T08:23:03.032Z,1.44
2018-12-16T08:24:03.066Z,1.44
2018-12-16T08:25:03.047Z,1.44
2018-12-16T08:26:02.803Z,1.4
2018-12-16T08:27:03.273Z,1.4
2018-12-16T08:28:03.085Z,1.37
2018-12-16T08:29:03.983Z,1.44
2018-12-16T08:30:03.010Z,1.4
2018-12-16T08:31:03.009Z,1.42
2018-12-16T08:32:02.984Z,1.4
2018-12-16T08:33:03.218Z,1.53
2018-12-16T08:34:03.217Z,1.5
2018-12-16T08:35:03.202Z,1.5
2018-12-16T08:36:02.937Z,1.5
2018-12-16T08:37:03.203Z,1.55
2018-12-16T08:38:03.209Z,1.56
2018-12-16T08:39:03.151Z,1.55
2018-12-16T08:40:02.643Z,1.68
2018-12-16T08:41:03.189Z,1.63
2018-12-16T08:42:02.608Z,1.7
2018-12-16T08:43:02.585Z,1.71
2018-12-16T08:44:02.829Z,1.76
2018-12-16T08:45:04.458Z,1.81
2018-12-16T08:46:02.827Z,1.73
2018-12-16T08:47:02.811Z,1.76
2018-12-16T08:48:02.543Z,1.77
2018-12-16T08:49:02.538Z,1.81
2018-12-16T08:50:02.763Z,1.81
2018-12-16T08:51:03.042Z,1.91
2018-12-16T08:52:02.807Z,1.91
2018-12-16T08:53:02.826Z,1.92
2018-12-16T08:54:02.479Z,2.04
2018-12-16T08:55:02.957Z,2.07
2018-12-16T08:56:02.721Z,2.07
2018-12-16T08:57:02.689Z,2.14
2018-12-16T08:58:02.454Z,2.1
2018-12-16T08:59:02.656Z,2.13
2018-12-16T09:00:02.911Z,2.08
2018-12-16T09:01:02.636Z,2.25
2018-12-16T09:02:02.880Z,2.15
2018-12-16T09:03:02.622Z,2.28
2018-12-16T09:04:02.620Z,2.29
2018-12-16T09:05:02.838Z,2.39
2018-12-16T09:06:02.601Z,2.38
2018-12-16T09:07:02.578Z,2.42
2018-12-16T09:08:03.719Z,2.5
2018-12-16T09:09:02.832Z,2.51
2018-12-16T09:10:02.801Z,2.61
2018-12-16T09:11:02.787Z,2.54
2018-12-16T09:12:02.796Z,2.6
2018-12-16T09:13:02.519Z,2.62
2018-12-16T09:14:02.792Z,2.65
2018-12-16T09:15:02.487Z,2.67
2018-12-16T09:16:02.472Z,2.61
2018-12-16T09:17:02.728Z,2.71
2018-12-16T09:18:02.463Z,2.79
2018-12-16T09:19:02.696Z,2.79
2018-12-16T09:20:02.450Z,2.8
2018-12-16T09:21:02.659Z,2.87
2018-12-16T09:22:02.164Z,2.83
2018-12-16T09:23:02.451Z,2.87
2018-12-16T09:24:02.434Z,2.77
2018-12-16T09:25:02.653Z,2.8
2018-12-16T09:26:02.615Z,2.9
2018-12-16T09:27:02.600Z,2.83
2018-12-16T09:28:02.137Z,2.9
2018-12-16T09:29:02.595Z,2.89
2018-12-16T09:30:02.346Z,2.93
2018-12-16T09:31:02.856Z,2.98
2018-12-16T09:32:02.868Z,2.98
2018-12-16T09:33:02.309Z,3.01
2018-12-16T09:34:02.308Z,2.93
2018-12-16T09:35:02.295Z,2.97
2018-12-16T09:36:02.037Z,2.87
2018-12-16T09:37:02.521Z,2.92
2018-12-16T09:38:05.091Z,2.9
2018-12-16T09:39:02.301Z,2.95
2018-12-16T09:40:02.480Z,2.98
2018-12-16T09:41:02.238Z,2.93
2018-12-16T09:42:02.479Z,3
2018-12-16T09:43:01.948Z,2.98
2018-12-16T09:44:02.241Z,3
2018-12-16T09:45:02.181Z,3
2018-12-16T09:46:02.462Z,3
2018-12-16T09:47:02.166Z,3.07
2018-12-16T09:48:02.402Z,3
2018-12-16T09:49:02.404Z,3.1
2018-12-16T09:50:02.146Z,3.11
2018-12-16T09:51:02.131Z,3.11
2018-12-16T09:52:02.104Z,3.14
2018-12-16T09:53:02.374Z,3.23
2018-12-16T09:54:04.138Z,3.23
2018-12-16T09:55:02.168Z,3.37
2018-12-16T09:56:01.833Z,3.34
2018-12-16T09:57:02.304Z,3.28
2018-12-16T09:58:02.052Z,3.42
2018-12-16T09:59:02.049Z,3.45
2018-12-16T10:00:02.031Z,3.55
2018-12-16T10:01:02.033Z,3.58
2018-12-16T10:02:02.269Z,3.56
2018-12-16T10:03:02.020Z,3.66
2018-12-16T10:04:02.256Z,3.77
2018-12-16T10:05:01.988Z,3.76
2018-12-16T10:06:01.981Z,3.78
2018-12-16T10:07:01.966Z,3.78
2018-12-16T10:08:02.227Z,3.86
2018-12-16T10:09:01.966Z,3.86
2018-12-16T10:10:02.187Z,3.84
2018-12-16T10:11:01.940Z,3.88
2018-12-16T10:12:01.917Z,3.83
2018-12-16T10:13:01.911Z,3.83
2018-12-16T10:14:02.146Z,3.95
2018-12-16T10:15:01.897Z,3.81
2018-12-16T10:16:01.884Z,3.87
2018-12-16T10:17:02.142Z,3.98
2018-12-16T10:18:02.108Z,3.99
2018-12-16T10:19:01.853Z,3.98
2018-12-16T10:20:02.094Z,3.99
2018-12-16T10:21:01.838Z,4.05
2018-12-16T10:22:01.863Z,3.96
2018-12-16T10:23:01.820Z,3.87
2018-12-16T10:24:02.073Z,3.96
2018-12-16T10:25:01.811Z,3.94
2018-12-16T10:26:01.790Z,3.81
2018-12-16T10:27:01.790Z,3.84
2018-12-16T10:28:01.780Z,3.95
2018-12-16T10:29:02.021Z,3.83
2018-12-16T10:30:01.605Z,3.8
2018-12-16T10:31:01.538Z,3.77
2018-12-16T10:32:01.745Z,3.8
2018-12-16T10:33:01.497Z,3.76
2018-12-16T10:34:01.724Z,3.73
2018-12-16T10:35:01.724Z,3.74
2018-12-16T10:36:01.711Z,3.87
2018-12-16T10:37:01.694Z,3.86
2018-12-16T10:38:01.678Z,3.84
2018-12-16T10:39:02.062Z,3.88
2018-12-16T10:40:01.721Z,3.84
2018-12-16T10:41:01.913Z,3.88
2018-12-16T10:42:01.888Z,3.87
2018-12-16T10:43:01.891Z,3.91
2018-12-16T10:44:01.876Z,3.81
2018-12-16T10:45:01.655Z,3.91
2018-12-16T10:46:01.626Z,3.83
2018-12-16T10:47:01.862Z,3.91
2018-12-16T10:48:01.610Z,4.06
2018-12-16T10:49:07.304Z,4.16
2018-12-16T10:50:01.846Z,4.24
2018-12-16T10:51:01.819Z,4.38
2018-12-16T10:52:01.565Z,4.4
2018-12-16T10:53:01.313Z,4.41
2018-12-16T10:54:01.784Z,4.41
2018-12-16T10:55:04.048Z,4.49
2018-12-16T10:56:01.946Z,4.44
2018-12-16T10:57:01.548Z,4.49
2018-12-16T10:58:02.633Z,4.48
2018-12-16T10:59:04.528Z,4.49
2018-12-16T11:00:01.936Z,4.5
2018-12-16T11:01:02.222Z,4.55
2018-12-16T11:02:01.970Z,4.53
2018-12-16T11:03:01.482Z,4.6
2018-12-16T11:04:01.729Z,4.5
2018-12-16T11:05:02.551Z,4.62
2018-12-16T11:06:01.178Z,4.66
2018-12-16T11:07:01.703Z,4.74
2018-12-16T11:08:01.691Z,4.66
2018-12-16T11:09:01.422Z,4.67
2018-12-16T11:10:01.899Z,4.53
2018-12-16T11:11:01.400Z,4.4
2018-12-16T11:12:01.649Z,4.31
2018-12-16T11:13:01.361Z,4.19
2018-12-16T11:14:01.358Z,4.17
2018-12-16T11:15:01.637Z,4.08
2018-12-16T11:16:01.640Z,4.05
2018-12-16T11:17:01.614Z,3.98
2018-12-16T11:18:01.593Z,3.98
2018-12-16T11:19:01.071Z,4.01
2018-12-16T11:20:01.640Z,3.99
2018-12-16T11:21:01.577Z,3.88
2018-12-16T11:22:02.567Z,3.98
2018-12-16T11:23:01.588Z,3.95
2018-12-16T11:24:01.031Z,3.96
2018-12-16T11:25:08.582Z,4.01
2018-12-16T11:26:01.273Z,4.01
2018-12-16T11:27:01.531Z,4.01
2018-12-16T11:28:01.494Z,4.05
2018-12-16T11:29:01.502Z,3.91
2018-12-16T11:30:01.528Z,4.04
2018-12-16T11:31:00.980Z,4.05
2018-12-16T11:32:00.946Z,4.01
2018-12-16T11:33:00.947Z,4.1
2018-12-16T11:34:01.196Z,4.04
2018-12-16T11:35:01.438Z,4.1
2018-12-16T11:36:01.155Z,4.12
2018-12-16T11:37:01.473Z,4.1
2018-12-16T11:38:02.189Z,4.1
2018-12-16T11:39:01.129Z,4.16
2018-12-16T11:40:01.118Z,4.06
2018-12-16T11:41:00.917Z,4.23
2018-12-16T11:42:01.365Z,4.17
2018-12-16T11:43:01.091Z,4.02
2018-12-16T11:44:01.340Z,4.08
2018-12-16T11:45:00.827Z,4.1
2018-12-16T11:46:01.832Z,4.06
2018-12-16T11:47:01.313Z,4.1
2018-12-16T11:48:01.060Z,4.04
2018-12-16T11:49:01.044Z,4.13
2018-12-16T11:50:00.797Z,4.05
2018-12-16T11:51:01.282Z,4.12
2018-12-16T11:52:01.025Z,4.16
2018-12-16T11:53:00.748Z,4.24
2018-12-16T11:54:01.288Z,4.23
2018-12-16T11:55:01.233Z,4.38
2018-12-16T11:56:04.525Z,4.44
2018-12-16T11:57:01.226Z,4.49
2018-12-16T11:58:01.204Z,4.49
2018-12-16T11:59:00.955Z,4.52
2018-12-16T12:00:01.192Z,4.58
2018-12-16T12:01:00.931Z,4.68
2018-12-16T12:02:00.928Z,4.58
2018-12-16T12:03:01.172Z,4.59
2018-12-16T12:04:00.912Z,4.63
2018-12-16T12:05:01.136Z,4.71
2018-12-16T12:06:01.141Z,4.75
2018-12-16T12:07:00.869Z,4.74
2018-12-16T12:08:01.114Z,4.86
2018-12-16T12:09:01.104Z,4.82
2018-12-16T12:10:01.089Z,4.78
2018-12-16T12:11:00.816Z,4.8
2018-12-16T12:12:01.087Z,4.92
2018-12-16T12:13:01.067Z,4.93
2018-12-16T12:14:01.062Z,4.86
2018-12-16T12:15:00.802Z,4.9
2018-12-16T12:16:01.057Z,5.02
2018-12-16T12:17:00.781Z,4.99
2018-12-16T12:18:00.531Z,4.92
2018-12-16T12:19:00.765Z,4.93
2018-12-16T12:20:01.051Z,4.84
2018-12-16T12:21:01.003Z,4.93
2018-12-16T12:22:06.690Z,4.87
2018-12-16T12:23:00.981Z,4.9
2018-12-16T12:24:00.742Z,4.9
2018-12-16T12:25:00.958Z,4.9
2018-12-16T12:26:00.957Z,4.9
2018-12-16T12:27:00.696Z,4.84
2018-12-16T12:28:00.940Z,4.89
2018-12-16T12:29:00.697Z,4.92
2018-12-16T12:30:00.674Z,4.9
2018-12-16T12:31:00.910Z,4.87
2018-12-16T12:32:00.919Z,4.87
2018-12-16T12:33:00.921Z,4.94
2018-12-16T12:34:00.643Z,4.78
2018-12-16T12:35:00.630Z,4.82
2018-12-16T12:36:00.391Z,4.87
2018-12-16T12:37:00.365Z,4.82
2018-12-16T12:38:00.875Z,4.87
2018-12-16T12:39:00.839Z,4.86
2018-12-16T12:40:00.860Z,4.9
2018-12-16T12:41:00.825Z,4.84
2018-12-16T12:42:00.875Z,4.82
2018-12-16T12:43:00.567Z,4.86
2018-12-16T12:44:00.815Z,4.8
2018-12-16T12:45:00.550Z,4.89
2018-12-16T12:46:00.783Z,4.86
2018-12-16T12:47:00.784Z,4.94
2018-12-16T12:48:00.525Z,4.9
2018-12-16T12:49:00.527Z,4.9
2018-12-16T12:50:00.509Z,4.99
2018-12-16T12:51:00.494Z,4.97
2018-12-16T12:52:00.721Z,5.05
2018-12-16T12:53:00.697Z,5.05
2018-12-16T12:54:00.460Z,4.97
2018-12-16T12:55:00.711Z,5.05
2018-12-16T12:56:00.759Z,4.99
2018-12-16T12:57:04.426Z,4.94
2018-12-16T12:58:00.439Z,4.93
2018-12-16T12:59:00.747Z,5
2018-12-16T13:00:00.411Z,5.05
2018-12-16T13:01:00.657Z,5.05
2018-12-16T13:02:00.650Z,5.2
2018-12-16T13:03:00.162Z,5.1
2018-12-16T13:04:00.656Z,5.08
2018-12-16T13:05:00.639Z,5.02
2018-12-16T13:06:00.390Z,5.11
2018-12-16T13:07:00.353Z,5.11
2018-12-16T13:08:00.616Z,5.07
2018-12-16T13:09:00.595Z,5.1
2018-12-16T13:10:00.331Z,4.86
2018-12-16T13:11:00.575Z,4.92
2018-12-16T13:12:01.688Z,4.86
2018-12-16T13:13:00.569Z,4.78
2018-12-16T13:14:00.051Z,4.75
2018-12-16T13:15:00.897Z,4.75
2018-12-16T13:16:00.542Z,4.75
2018-12-16T13:17:00.297Z,4.84
2018-12-16T13:18:00.270Z,4.82
2018-12-16T13:19:00.507Z,4.86
2018-12-16T13:20:00.268Z,4.94
2018-12-16T13:21:00.503Z,4.93